createdAt,value
2019-05-12T00:01:12.812Z,1.83
2019-05-12T00:03:40.990Z,1.80
2019-05-12T00:06:09.156Z,1.80
2019-05-12T00:08:38.247Z,2.63
2019-05-12T00:11:08.799Z,2.60
2019-05-12T00:13:38.484Z,1.67
2019-05-12T00:16:08.619Z,2.47
2019-05-12T00:18:37.798Z,2.70
2019-05-12T00:21:08.653Z,1.87
2019-05-12T00:23:58.260Z,1.50
2019-05-12T00:26:28.278Z,2.20
2019-05-12T00:28:58.797Z,1.77
2019-05-12T00:31:28.171Z,2.03
2019-05-12T00:33:58.634Z,1.53
2019-05-12T00:36:29.090Z,2.20
2019-05-12T00:38:58.024Z,1.50
2019-05-12T00:41:28.402Z,1.83
2019-05-12T00:43:58.228Z,1.93
2019-05-12T00:46:27.843Z,1.90
2019-05-12T00:48:58.523Z,1.90
2019-05-12T00:51:28.871Z,1.97
2019-05-12T00:53:58.042Z,1.70
2019-05-12T00:56:28.489Z,2.00
2019-05-12T00:58:57.999Z,1.70
2019-05-12T01:01:28.524Z,1.63
2019-05-12T01:03:57.964Z,1.93
2019-05-12T01:06:28.217Z,2.27
2019-05-12T01:08:57.927Z,2.00
2019-05-12T01:11:28.553Z,2.00
2019-05-12T01:13:58.288Z,1.83
2019-05-12T01:16:28.929Z,2.50
2019-05-12T01:18:58.629Z,2.00
2019-05-12T01:21:28.695Z,1.70
2019-05-12T01:24:03.266Z,2.20
2019-05-12T01:26:28.442Z,1.77
2019-05-12T01:28:58.052Z,2.07
2019-05-12T01:31:29.307Z,2.10
2019-05-12T01:33:58.618Z,1.70
2019-05-12T01:36:28.712Z,1.80
2019-05-12T01:38:59.115Z,1.93
2019-05-12T01:41:28.628Z,1.70
2019-05-12T01:43:58.435Z,1.80
2019-05-12T01:46:28.774Z,1.83
2019-05-12T01:48:59.065Z,1.80
2019-05-12T01:51:28.420Z,2.07
2019-05-12T01:54:10.696Z,2.17
2019-05-12T01:56:28.753Z,1.60
2019-05-12T01:58:57.858Z,1.77
2019-05-12T02:01:28.069Z,1.67
2019-05-12T02:03:58.414Z,2.60
2019-05-12T02:06:27.864Z,2.47
2019-05-12T02:08:59.275Z,2.30
2019-05-12T02:11:33.733Z,2.10
2019-05-12T02:14:04.107Z,2.17
2019-05-12T02:16:32.770Z,2.40
2019-05-12T02:19:00.942Z,1.80
2019-05-12T02:21:29.310Z,2.80
2019-05-12T02:23:58.293Z,2.07
2019-05-12T02:26:28.896Z,2.40
2019-05-12T02:28:58.615Z,2.37
2019-05-12T02:31:29.381Z,3.00
2019-05-12T02:33:57.382Z,2.20
2019-05-12T02:36:26.212Z,2.13
2019-05-12T02:38:55.899Z,2.23
2019-05-12T02:41:26.022Z,2.47
2019-05-12T02:43:55.386Z,2.43
2019-05-12T02:46:25.601Z,1.90
2019-05-12T02:48:54.704Z,2.23
2019-05-12T02:51:24.788Z,2.63
2019-05-12T02:53:55.087Z,2.13
2019-05-12T02:56:25.579Z,2.50
2019-05-12T02:58:55.853Z,2.70
2019-05-12T03:01:27.953Z,2.93
2019-05-12T03:04:01.561Z,2.23
2019-05-12T03:06:30.925Z,2.20
2019-05-12T03:09:04.523Z,2.53
2019-05-12T03:11:35.507Z,2.30
2019-05-12T03:14:04.164Z,2.40
2019-05-12T03:16:34.976Z,2.00
2019-05-12T03:19:04.964Z,1.80
2019-05-12T03:21:35.198Z,2.20
2019-05-12T03:24:06.046Z,2.00
2019-05-12T03:26:34.724Z,3.20
2019-05-12T03:29:05.643Z,2.40
2019-05-12T03:31:39.883Z,2.53
2019-05-12T03:34:09.543Z,2.13
2019-05-12T03:36:42.048Z,2.47
2019-05-12T03:39:08.108Z,2.07
2019-05-12T03:41:36.271Z,2.33
2019-05-12T03:44:05.270Z,2.73
2019-05-12T03:46:35.221Z,2.27
2019-05-12T03:49:05.327Z,3.10
2019-05-12T03:51:34.944Z,2.87
2019-05-12T03:54:04.897Z,2.90
2019-05-12T03:56:34.673Z,3.00
2019-05-12T03:59:05.038Z,2.30
2019-05-12T04:01:36.392Z,2.30
2019-05-12T04:04:05.401Z,2.13
2019-05-12T04:06:34.856Z,2.33
2019-05-12T04:09:06.667Z,2.50
2019-05-12T04:11:35.851Z,1.93
2019-05-12T04:14:05.618Z,2.03
2019-05-12T04:16:36.309Z,1.90
2019-05-12T04:19:05.556Z,2.10
2019-05-12T04:21:35.334Z,2.23
2019-05-12T04:24:05.626Z,2.10
2019-05-12T04:26:36.265Z,2.80
2019-05-12T04:29:05.360Z,2.70
2019-05-12T04:31:35.839Z,3.30
2019-05-12T04:34:05.362Z,2.60
2019-05-12T04:36:35.692Z,3.27
2019-05-12T04:39:07.668Z,2.50
2019-05-12T04:41:36.356Z,2.27
2019-05-12T04:44:05.794Z,2.50
2019-05-12T04:46:34.980Z,2.50
2019-05-12T04:49:05.302Z,2.70
2019-05-12T04:51:34.881Z,2.57
2019-05-12T04:54:05.739Z,2.37
2019-05-12T04:56:35.874Z,2.40
2019-05-12T04:59:05.215Z,2.00
2019-05-12T05:01:34.683Z,2.30
2019-05-12T05:04:05.463Z,2.57
2019-05-12T05:06:34.970Z,2.40
2019-05-12T05:09:05.996Z,2.47
2019-05-12T05:11:34.738Z,2.20
2019-05-12T05:14:04.159Z,2.17
2019-05-12T05:16:34.579Z,2.30
2019-05-12T05:19:03.710Z,2.00
2019-05-12T05:21:34.253Z,2.07
2019-05-12T05:24:03.845Z,2.20
2019-05-12T05:26:36.640Z,2.67
2019-05-12T05:29:04.288Z,2.53
2019-05-12T05:31:33.833Z,2.50
2019-05-12T05:34:04.774Z,2.00
2019-05-12T05:36:34.521Z,1.70
2019-05-12T05:39:06.317Z,2.00
2019-05-12T05:41:34.653Z,1.80
2019-05-12T05:44:03.437Z,1.90
2019-05-12T05:46:33.705Z,1.90
2019-05-12T05:49:04.090Z,1.90
2019-05-12T05:51:33.542Z,2.03
2019-05-12T05:54:04.012Z,1.53
2019-05-12T05:56:42.388Z,1.80
2019-05-12T05:59:04.618Z,1.87
2019-05-12T06:01:34.799Z,1.50
2019-05-12T06:04:04.382Z,1.93
2019-05-12T06:06:34.272Z,2.13
2019-05-12T06:09:05.710Z,1.83
2019-05-12T06:11:34.653Z,1.73
2019-05-12T06:14:11.066Z,1.50
2019-05-12T06:16:34.091Z,1.70
2019-05-12T06:19:03.497Z,1.80
2019-05-12T06:21:36.216Z,1.73
2019-05-12T06:24:03.526Z,2.00
2019-05-12T06:26:35.304Z,1.67
2019-05-12T06:29:04.428Z,1.20
2019-05-12T06:31:33.528Z,1.33
2019-05-12T06:34:06.303Z,1.40
2019-05-12T06:36:34.023Z,1.47
2019-05-12T06:39:10.339Z,1.77
2019-05-12T06:41:36.220Z,1.27
2019-05-12T06:44:08.826Z,1.47
2019-05-12T06:46:35.003Z,1.67
2019-05-12T06:49:10.265Z,1.80
2019-05-12T06:51:33.868Z,1.50
2019-05-12T06:54:07.326Z,1.43
2019-05-12T06:56:34.163Z,1.60
2019-05-12T06:59:09.979Z,1.13
2019-05-12T07:01:33.509Z,1.30
2019-05-12T07:04:06.786Z,1.40
2019-05-12T07:06:33.891Z,1.30
2019-05-12T07:09:09.487Z,1.33
2019-05-12T07:11:45.119Z,1.40
2019-05-12T07:14:13.045Z,1.33
2019-05-12T07:16:37.044Z,1.40
2019-05-12T07:19:09.648Z,1.60
2019-05-12T07:21:36.056Z,1.20
2019-05-12T07:24:06.802Z,1.30
2019-05-12T07:26:34.814Z,1.30
2019-05-12T07:29:04.421Z,0.97
2019-05-12T07:31:33.795Z,1.47
2019-05-12T07:34:05.301Z,1.00
2019-05-12T07:36:33.914Z,0.80
2019-05-12T07:39:08.407Z,1.43
2019-05-12T07:41:42.282Z,1.00
2019-05-12T07:44:08.497Z,0.70
2019-05-12T07:46:39.677Z,1.00
2019-05-12T07:49:07.234Z,1.13
2019-05-12T07:51:40.345Z,1.17
2019-05-12T07:54:06.120Z,1.20
2019-05-12T07:56:35.868Z,0.60
2019-05-12T07:59:04.492Z,0.90
2019-05-12T08:01:35.774Z,0.77
2019-05-12T08:04:04.564Z,0.87
2019-05-12T08:06:41.424Z,0.80
2019-05-12T08:09:05.789Z,0.70
2019-05-12T08:11:37.299Z,0.90
2019-05-12T08:14:04.441Z,1.20
2019-05-12T08:16:36.812Z,0.70
2019-05-12T08:19:04.010Z,0.50
2019-05-12T08:21:34.771Z,0.90
2019-05-12T08:24:03.774Z,0.90
2019-05-12T08:26:33.487Z,0.80
2019-05-12T08:29:04.274Z,0.90
2019-05-12T08:31:40.102Z,0.77
2019-05-12T08:34:04.198Z,1.00
2019-05-12T08:36:33.604Z,0.67
2019-05-12T08:39:05.915Z,1.00
2019-05-12T08:41:34.119Z,1.10
2019-05-12T08:44:04.613Z,1.10
2019-05-12T08:46:34.406Z,0.87
2019-05-12T08:49:05.464Z,0.57
2019-05-12T08:51:33.939Z,0.80
2019-05-12T08:54:07.045Z,0.70
2019-05-12T08:56:33.236Z,0.87
2019-05-12T08:59:04.152Z,0.80
2019-05-12T09:01:34.341Z,1.30
2019-05-12T09:04:06.451Z,1.20
2019-05-12T09:06:34.397Z,0.80
2019-05-12T09:09:06.247Z,1.00
2019-05-12T09:11:34.555Z,0.87
2019-05-12T09:14:05.731Z,0.83
2019-05-12T09:16:33.764Z,0.70
2019-05-12T09:19:04.683Z,0.80
2019-05-12T09:21:36.606Z,0.87
2019-05-12T09:24:04.182Z,0.73
2019-05-12T09:26:34.311Z,0.70
2019-05-12T09:29:03.456Z,1.00
2019-05-12T09:31:33.606Z,0.60
2019-05-12T09:34:03.498Z,0.30
2019-05-12T09:36:34.017Z,0.70
2019-05-12T09:39:06.027Z,0.83
2019-05-12T09:41:42.335Z,0.83
2019-05-12T09:44:05.100Z,0.53
2019-05-12T09:46:37.301Z,0.80
2019-05-12T09:49:04.213Z,0.90
2019-05-12T09:51:41.013Z,1.10
2019-05-12T09:54:05.046Z,0.70
2019-05-12T09:56:34.216Z,0.87
2019-05-12T09:59:16.935Z,0.87
2019-05-12T10:01:37.324Z,0.80
2019-05-12T10:04:03.567Z,0.90
2019-05-12T10:06:33.964Z,1.00
2019-05-12T10:09:08.802Z,0.70
2019-05-12T10:11:34.529Z,0.90
2019-05-12T10:14:08.515Z,0.67
2019-05-12T10:16:33.490Z,0.70
2019-05-12T10:19:03.945Z,0.90
2019-05-12T10:21:32.521Z,1.07
2019-05-12T10:24:02.804Z,0.70
2019-05-12T10:26:30.903Z,0.60
2019-05-12T10:29:13.320Z,0.80
2019-05-12T10:31:35.823Z,1.23
2019-05-12T10:34:18.620Z,0.80
2019-05-12T10:36:49.113Z,0.93
2019-05-12T10:39:18.024Z,1.00
2019-05-12T10:41:46.865Z,0.90
2019-05-12T10:44:15.419Z,0.97
2019-05-12T10:46:45.162Z,0.80
2019-05-12T10:49:13.958Z,0.80
2019-05-12T10:51:44.137Z,0.80
2019-05-12T10:54:15.597Z,1.00
2019-05-12T10:56:43.869Z,0.97
2019-05-12T10:59:13.320Z,1.33
2019-05-12T11:01:47.225Z,0.77
2019-05-12T11:04:14.187Z,1.17
2019-05-12T11:06:44.773Z,0.73
2019-05-12T11:09:13.955Z,0.90
2019-05-12T11:11:46.792Z,0.77
2019-05-12T11:14:14.218Z,0.80
2019-05-12T11:16:44.579Z,1.10
2019-05-12T11:19:13.746Z,0.67
2019-05-12T11:21:44.290Z,1.03
2019-05-12T11:24:13.863Z,0.60
2019-05-12T11:26:43.266Z,0.80
2019-05-12T11:29:14.030Z,0.87
2019-05-12T11:31:44.145Z,0.83
2019-05-12T11:34:12.458Z,1.20
2019-05-12T11:36:40.672Z,0.43
2019-05-12T11:39:10.291Z,0.63
2019-05-12T11:41:38.488Z,1.10
2019-05-12T11:44:06.957Z,0.97
2019-05-12T11:46:36.372Z,0.60
2019-05-12T11:49:05.208Z,1.00
2019-05-12T11:51:34.109Z,0.47
2019-05-12T11:54:03.453Z,0.77
2019-05-12T11:56:33.582Z,0.97
2019-05-12T11:59:02.249Z,0.90
2019-05-12T12:01:31.291Z,0.90
2019-05-12T12:03:59.412Z,0.93
2019-05-12T12:06:27.574Z,0.80
2019-05-12T12:08:55.692Z,0.63
2019-05-12T12:11:27.626Z,0.80
2019-05-12T12:13:53.927Z,0.67
2019-05-12T12:16:23.753Z,0.97
2019-05-12T12:19:02.182Z,0.50
2019-05-12T12:21:23.739Z,0.60
2019-05-12T12:23:53.470Z,0.47
2019-05-12T12:26:26.177Z,1.00
2019-05-12T12:28:54.086Z,0.83
2019-05-12T12:31:23.809Z,1.10
2019-05-12T12:33:53.617Z,0.97
2019-05-12T12:36:23.676Z,1.23
2019-05-12T12:38:53.493Z,0.87
2019-05-12T12:41:23.710Z,1.23
2019-05-12T12:43:53.991Z,0.90
2019-05-12T12:46:27.215Z,1.07
2019-05-12T12:49:00.422Z,1.10
2019-05-12T12:51:26.143Z,1.00
2019-05-12T12:53:54.321Z,1.07
2019-05-12T12:56:28.277Z,1.10
2019-05-12T12:58:52.494Z,0.93
2019-05-12T13:01:26.888Z,0.90
2019-05-12T13:03:51.037Z,1.00
2019-05-12T13:06:19.144Z,0.80
2019-05-12T13:08:47.343Z,0.90
2019-05-12T13:11:15.739Z,1.00
2019-05-12T13:13:43.982Z,1.20
2019-05-12T13:16:13.298Z,0.73
2019-05-12T13:18:43.501Z,0.60
2019-05-12T13:21:13.776Z,0.80
2019-05-12T13:23:42.210Z,0.90
2019-05-12T13:26:10.391Z,0.90
2019-05-12T13:28:39.109Z,1.00
2019-05-12T13:31:12.821Z,1.20
2019-05-12T13:33:38.476Z,0.70
2019-05-12T13:36:06.598Z,0.60
2019-05-12T13:38:38.968Z,0.50
2019-05-12T13:41:09.613Z,0.50
2019-05-12T13:43:35.068Z,0.80
2019-05-12T13:46:03.184Z,0.50
2019-05-12T13:48:31.433Z,0.93
2019-05-12T13:51:10.299Z,0.83
2019-05-12T13:53:29.767Z,0.57
2019-05-12T13:55:58.515Z,0.90
2019-05-12T13:58:28.355Z,0.80
2019-05-12T14:03:28.000Z,0.87
2019-05-12T14:05:56.687Z,0.80
2019-05-12T14:08:25.307Z,0.83
2019-05-12T14:10:58.674Z,0.47
2019-05-12T14:13:24.549Z,0.70
2019-05-12T14:15:53.753Z,0.73
2019-05-12T14:18:22.459Z,0.73
2019-05-12T14:20:55.069Z,0.70
2019-05-12T14:23:20.622Z,0.73
2019-05-12T14:25:48.750Z,0.70
2019-05-12T14:28:17.061Z,0.77
2019-05-12T14:30:47.374Z,0.53
2019-05-12T14:33:18.371Z,0.73
2019-05-12T14:35:46.418Z,0.77
2019-05-12T14:38:19.276Z,0.87
2019-05-12T14:40:44.660Z,0.97
2019-05-12T14:43:17.009Z,0.70
2019-05-12T14:45:44.073Z,0.70
2019-05-12T14:48:13.889Z,0.70
2019-05-12T14:50:44.144Z,0.77
2019-05-12T14:53:14.384Z,0.70
2019-05-12T14:55:43.618Z,0.73
2019-05-12T14:58:17.735Z,0.80
2019-05-12T15:00:44.410Z,1.10
2019-05-12T15:03:15.416Z,0.90
2019-05-12T15:05:47.385Z,0.50
2019-05-12T15:08:13.963Z,0.60
2019-05-12T15:10:42.225Z,0.87
2019-05-12T15:13:10.391Z,0.67
2019-05-12T15:15:38.845Z,0.83
2019-05-12T15:18:09.979Z,0.80
2019-05-12T15:20:44.997Z,0.80
2019-05-12T15:23:07.247Z,0.73
2019-05-12T15:25:37.209Z,0.43
2019-05-12T15:28:05.676Z,0.40
2019-05-12T15:30:33.833Z,0.63
2019-05-12T15:33:04.501Z,1.00
2019-05-12T15:35:34.355Z,0.80
2019-05-12T15:38:03.754Z,0.77
2019-05-12T15:40:33.598Z,0.60
2019-05-12T15:43:04.856Z,0.70
2019-05-12T15:45:34.156Z,0.90
2019-05-12T15:48:04.121Z,0.83
2019-05-12T15:50:34.247Z,0.80
2019-05-12T15:53:03.870Z,1.13
2019-05-12T15:55:34.435Z,0.63
2019-05-12T15:58:05.521Z,0.77
2019-05-12T16:00:34.381Z,0.87
2019-05-12T16:03:02.866Z,0.60
2019-05-12T16:05:33.718Z,0.70
2019-05-12T16:08:03.618Z,0.87
2019-05-12T16:10:31.737Z,0.77
2019-05-12T16:13:00.318Z,0.87
2019-05-12T16:15:28.498Z,0.97
2019-05-12T16:17:59.536Z,1.00
2019-05-12T16:20:27.284Z,1.40
2019-05-12T16:22:57.626Z,0.40
2019-05-12T16:25:29.148Z,0.90
2019-05-12T16:27:56.180Z,1.00
2019-05-12T16:30:25.903Z,1.47
2019-05-12T16:32:55.152Z,1.20
2019-05-12T16:35:26.371Z,1.30
2019-05-12T16:37:53.986Z,1.17
2019-05-12T16:40:23.834Z,1.17
2019-05-12T16:42:59.327Z,0.70
2019-05-12T16:45:23.575Z,0.80
2019-05-12T16:47:53.627Z,0.90
2019-05-12T16:50:25.485Z,0.73
2019-05-12T16:52:53.546Z,0.97
2019-05-12T16:55:24.121Z,1.47
2019-05-12T16:57:55.791Z,1.43
2019-05-12T17:00:24.385Z,1.40
2019-05-12T17:02:57.810Z,1.40
2019-05-12T17:05:24.025Z,1.60
2019-05-12T17:07:55.724Z,1.30
2019-05-12T17:10:24.254Z,1.43
2019-05-12T17:12:54.332Z,1.67
2019-05-12T17:15:23.566Z,1.20
2019-05-12T17:17:59.193Z,1.20
2019-05-12T17:20:22.897Z,1.27
2019-05-12T17:22:57.259Z,1.30
2019-05-12T17:25:21.125Z,1.37
2019-05-12T17:27:49.240Z,1.57
2019-05-12T17:30:17.708Z,1.17
2019-05-12T17:32:58.090Z,1.10
2019-05-12T17:35:20.354Z,2.00
2019-05-12T17:37:46.885Z,1.50
2019-05-12T17:40:19.924Z,1.60
2019-05-12T17:42:46.078Z,1.63
2019-05-12T17:45:20.192Z,2.03
2019-05-12T17:47:45.648Z,1.70
2019-05-12T17:50:14.134Z,2.03
2019-05-12T17:52:45.058Z,2.03
2019-05-12T17:55:14.599Z,1.90
2019-05-12T17:57:43.887Z,2.40
2019-05-12T18:00:14.439Z,1.83
2019-05-12T18:02:43.904Z,1.73
2019-05-12T18:05:15.543Z,1.60
2019-05-12T18:07:44.280Z,1.93
2019-05-12T18:10:14.994Z,1.63
2019-05-12T18:12:45.519Z,2.10
2019-05-12T18:15:15.236Z,1.17
2019-05-12T18:17:47.409Z,1.93
2019-05-12T18:20:16.028Z,1.87
2019-05-12T18:22:45.361Z,2.20
2019-05-12T18:25:15.030Z,2.07
2019-05-12T18:27:50.144Z,1.63
2019-05-12T18:30:15.587Z,1.80
2019-05-12T18:32:44.314Z,1.50
2019-05-12T18:35:13.953Z,1.67
2019-05-12T18:37:42.136Z,2.37
2019-05-12T18:40:10.712Z,1.40
2019-05-12T18:42:39.230Z,1.83
2019-05-12T18:45:11.847Z,1.70
2019-05-12T18:47:38.089Z,2.07
2019-05-12T18:50:06.947Z,2.20
2019-05-12T18:52:42.298Z,1.80
2019-05-12T18:55:05.286Z,1.93
2019-05-12T18:57:33.845Z,1.70
2019-05-12T19:00:06.431Z,1.93
2019-05-12T19:02:35.510Z,1.60
2019-05-12T19:05:04.540Z,2.00
2019-05-12T19:07:39.574Z,1.97
2019-05-12T19:10:04.821Z,2.33
2019-05-12T19:12:35.478Z,2.00
2019-05-12T19:15:04.651Z,1.90
2019-05-12T19:17:33.057Z,2.27
2019-05-12T19:20:01.577Z,2.13
2019-05-12T19:22:30.456Z,2.10
2019-05-12T19:25:00.072Z,1.70
2019-05-12T19:27:28.764Z,2.27
2019-05-12T19:29:57.065Z,2.43
2019-05-12T19:32:28.094Z,2.03
2019-05-12T19:34:56.007Z,2.13
2019-05-12T19:37:26.433Z,2.20
2019-05-12T19:39:55.421Z,2.13
2019-05-12T19:42:24.453Z,1.80
2019-05-12T19:44:55.595Z,1.67
2019-05-12T19:47:33.484Z,1.63
2019-05-12T19:49:53.708Z,1.70
2019-05-12T19:52:24.340Z,2.13
2019-05-12T19:54:52.601Z,2.27
2019-05-12T19:57:21.860Z,2.40
2019-05-12T19:59:52.569Z,2.83
2019-05-12T20:02:23.734Z,2.50
2019-05-12T20:04:53.984Z,1.97
2019-05-12T20:07:23.338Z,2.40
2019-05-12T20:09:56.085Z,2.10
2019-05-12T20:12:24.034Z,2.77
2019-05-12T20:14:57.068Z,2.17
2019-05-12T20:17:24.336Z,2.10
2019-05-12T20:19:53.944Z,2.27
2019-05-12T20:22:24.327Z,2.43
2019-05-12T20:24:53.697Z,2.13
2019-05-12T20:27:24.759Z,2.17
2019-05-12T20:29:54.156Z,1.73
2019-05-12T20:32:24.077Z,2.63
2019-05-12T20:34:55.361Z,1.80
2019-05-12T20:37:23.683Z,1.93
2019-05-12T20:40:00.186Z,1.87
2019-05-12T20:42:25.462Z,2.17
2019-05-12T20:44:58.032Z,2.27
2019-05-12T20:47:23.797Z,2.03
2019-05-12T20:49:52.935Z,2.07
2019-05-12T20:52:23.633Z,2.57
2019-05-12T20:54:57.721Z,1.70
2019-05-12T20:57:23.624Z,1.97
2019-05-12T20:59:52.469Z,2.10
2019-05-12T21:02:23.168Z,2.30
2019-05-12T21:05:00.389Z,2.50
2019-05-12T21:07:24.864Z,2.13
2019-05-12T21:09:52.248Z,2.40
2019-05-12T21:12:20.791Z,1.90
2019-05-12T21:14:51.357Z,2.10
2019-05-12T21:17:19.500Z,2.13
2019-05-12T21:19:57.030Z,1.93
2019-05-12T21:22:18.109Z,1.97
2019-05-12T21:24:46.326Z,2.10
2019-05-12T21:27:19.564Z,2.20
2019-05-12T21:29:44.804Z,2.30
2019-05-12T21:32:16.740Z,2.07
2019-05-12T21:34:43.936Z,2.03
2019-05-12T21:37:13.938Z,2.53
2019-05-12T21:39:49.197Z,2.07
2019-05-12T21:42:12.803Z,2.67
2019-05-12T21:44:46.792Z,2.13
2019-05-12T21:47:13.878Z,2.30
2019-05-12T21:49:48.510Z,2.00
2019-05-12T21:52:13.640Z,2.93
2019-05-12T21:54:43.899Z,1.90
2019-05-12T21:57:12.121Z,2.03
2019-05-12T21:59:40.750Z,2.10
2019-05-12T22:02:09.112Z,2.47
2019-05-12T22:04:41.329Z,2.63
2019-05-12T22:07:08.377Z,2.73
2019-05-12T22:09:41.746Z,2.23
2019-05-12T22:12:06.637Z,2.03
2019-05-12T22:14:38.693Z,2.60
2019-05-12T22:17:07.147Z,2.53
2019-05-12T22:19:38.127Z,2.70
2019-05-12T22:22:06.630Z,2.87
2019-05-12T22:24:38.789Z,2.20
2019-05-12T22:27:05.310Z,2.27
2019-05-12T22:29:34.226Z,2.67
2019-05-12T22:32:04.850Z,2.10
2019-05-12T22:34:37.346Z,2.60
2019-05-12T22:37:03.945Z,2.10
2019-05-12T22:39:33.844Z,1.80
2019-05-12T22:42:04.078Z,2.13
2019-05-12T22:44:34.560Z,2.30
2019-05-12T22:47:06.481Z,1.57
2019-05-12T22:49:33.905Z,2.23
2019-05-12T22:52:03.277Z,2.77
2019-05-12T22:54:33.659Z,2.50
2019-05-12T22:57:04.067Z,2.37
2019-05-12T22:59:40.430Z,2.20
2019-05-12T23:02:04.442Z,2.20
2019-05-12T23:04:35.791Z,2.67
2019-05-12T23:07:03.894Z,1.87
2019-05-12T23:09:33.977Z,2.37
2019-05-12T23:12:04.032Z,2.67
2019-05-12T23:14:34.065Z,3.03
2019-05-12T23:17:05.789Z,2.30
2019-05-12T23:19:34.034Z,2.10
2019-05-12T23:22:03.700Z,2.10
2019-05-12T23:24:37.283Z,2.37
2019-05-12T23:27:04.756Z,2.20
2019-05-12T23:29:33.972Z,2.63
2019-05-12T23:32:07.295Z,2.53
2019-05-12T23:34:35.684Z,2.60
2019-05-12T23:37:04.524Z,2.70
2019-05-12T23:39:37.932Z,2.00
2019-05-12T23:42:04.375Z,1.80
2019-05-12T23:44:33.714Z,1.97
2019-05-12T23:47:04.329Z,2.53
2019-05-12T23:49:33.724Z,2.40
2019-05-12T23:52:03.789Z,2.00
2019-05-12T23:54:34.463Z,2.30
2019-05-12T23:57:03.918Z,2.00
2019-05-12T23:59:33.447Z,3.20
